sensor_id;sensor_type;location;lat;lon;timestamp;P1;durP1;ratioP1;P2;durP2;ratioP2
9224;SDS011;4647;48.072;11.616;2023-04-06T00:00:06;9.07;;;8.03;;
9224;SDS011;4647;48.072;11.616;2023-04-06T00:02:36;9.83;;;8.83;;
9224;SDS011;4647;48.072;11.616;2023-04-06T00:05:08;8.77;;;7.80;;
9224;SDS011;4647;48.072;11.616;2023-04-06T00:07:36;10.03;;;8.03;;
9224;SDS011;4647;48.072;11.616;2023-04-06T00:10:05;9.17;;;8.23;;
9224;SDS011;4647;48.072;11.616;2023-04-06T00:12:35;10.53;;;7.80;;
9224;SDS011;4647;48.072;11.616;2023-04-06T00:15:04;11.03;;;8.73;;
9224;SDS011;4647;48.072;11.616;2023-04-06T00:17:33;10.43;;;7.83;;
9224;SDS011;4647;48.072;11.616;2023-04-06T00:20:02;9.13;;;8.10;;
9224;SDS011;4647;48.072;11.616;2023-04-06T00:22:34;10.10;;;7.90;;
9224;SDS011;4647;48.072;11.616;2023-04-06T00:25:03;8.70;;;7.80;;
9224;SDS011;4647;48.072;11.616;2023-04-06T00:27:32;9.57;;;8.10;;
9224;SDS011;4647;48.072;11.616;2023-04-06T00:30:01;10.77;;;8.07;;
9224;SDS011;4647;48.072;11.616;2023-04-06T00:32:29;11.73;;;8.67;;
9224;SDS011;4647;48.072;11.616;2023-04-06T00:34:58;9.30;;;8.27;;
9224;SDS011;4647;48.072;11.616;2023-04-06T00:37:27;9.10;;;8.20;;
9224;SDS011;4647;48.072;11.616;2023-04-06T00:39:58;9.53;;;8.53;;
9224;SDS011;4647;48.072;11.616;2023-04-06T00:42:27;9.70;;;8.50;;
9224;SDS011;4647;48.072;11.616;2023-04-06T00:44:56;8.93;;;8.03;;
9224;SDS011;4647;48.072;11.616;2023-04-06T00:47:26;9.10;;;8.20;;
9224;SDS011;4647;48.072;11.616;2023-04-06T00:49:56;10.20;;;8.50;;
9224;SDS011;4647;48.072;11.616;2023-04-06T00:52:24;9.10;;;7.37;;
9224;SDS011;4647;48.072;11.616;2023-04-06T00:54:53;9.43;;;8.40;;
9224;SDS011;4647;48.072;11.616;2023-04-06T00:57:25;10.10;;;7.53;;
9224;SDS011;4647;48.072;11.616;2023-04-06T00:59:53;8.73;;;7.83;;
9224;SDS011;4647;48.072;11.616;2023-04-06T01:02:23;10.47;;;8.73;;
9224;SDS011;4647;48.072;11.616;2023-04-06T01:04:51;9.77;;;8.00;;
9224;SDS011;4647;48.072;11.616;2023-04-06T01:07:20;10.80;;;7.93;;
9224;SDS011;4647;48.072;11.616;2023-04-06T01:09:49;10.30;;;8.17;;
9224;SDS011;4647;48.072;11.616;2023-04-06T01:12:18;8.87;;;7.83;;
9224;SDS011;4647;48.072;11.616;2023-04-06T01:14:49;9.37;;;7.93;;
9224;SDS011;4647;48.072;11.616;2023-04-06T01:17:17;9.80;;;8.57;;
9224;SDS011;4647;48.072;11.616;2023-04-06T01:19:46;9.97;;;8.27;;
9224;SDS011;4647;48.072;11.616;2023-04-06T01:22:18;9.57;;;8.13;;
9224;SDS011;4647;48.072;11.616;2023-04-06T01:24:47;8.97;;;8.07;;
9224;SDS011;4647;48.072;11.616;2023-04-06T01:27:16;10.13;;;8.13;;
9224;SDS011;4647;48.072;11.616;2023-04-06T01:29:44;9.83;;;7.90;;
9224;SDS011;4647;48.072;11.616;2023-04-06T01:32:13;10.23;;;7.63;;
9224;SDS011;4647;48.072;11.616;2023-04-06T01:34:41;10.57;;;7.73;;
9224;SDS011;4647;48.072;11.616;2023-04-06T01:37:10;9.17;;;8.27;;
9224;SDS011;4647;48.072;11.616;2023-04-06T01:39:41;9.90;;;8.50;;
9224;SDS011;4647;48.072;11.616;2023-04-06T01:42:10;9.53;;;8.53;;
9224;SDS011;4647;48.072;11.616;2023-04-06T01:44:38;9.00;;;8.07;;
9224;SDS011;4647;48.072;11.616;2023-04-06T01:47:07;9.37;;;8.43;;
9224;SDS011;4647;48.072;11.616;2023-04-06T01:49:35;9.97;;;8.23;;
9224;SDS011;4647;48.072;11.616;2023-04-06T01:52:04;10.00;;;8.40;;
9224;SDS011;4647;48.072;11.616;2023-04-06T01:54:33;10.73;;;9.13;;
9224;SDS011;4647;48.072;11.616;2023-04-06T01:57:04;9.33;;;8.40;;
9224;SDS011;4647;48.072;11.616;2023-04-06T01:59:32;9.67;;;8.77;;
9224;SDS011;4647;48.072;11.616;2023-04-06T02:02:01;9.37;;;7.83;;
9224;SDS011;4647;48.072;11.616;2023-04-06T02:04:30;8.73;;;7.90;;
9224;SDS011;4647;48.072;11.616;2023-04-06T02:06:58;9.77;;;8.27;;
9224;SDS011;4647;48.072;11.616;2023-04-06T02:09:27;8.53;;;7.70;;
9224;SDS011;4647;48.072;11.616;2023-04-06T02:11:55;11.50;;;8.10;;
9224;SDS011;4647;48.072;11.616;2023-04-06T02:14:27;10.63;;;7.80;;
9224;SDS011;4647;48.072;11.616;2023-04-06T02:16:55;9.73;;;7.93;;
9224;SDS011;4647;48.072;11.616;2023-04-06T02:19:24;9.47;;;8.33;;
9224;SDS011;4647;48.072;11.616;2023-04-06T02:21:53;9.33;;;7.90;;
9224;SDS011;4647;48.072;11.616;2023-04-06T02:24:21;9.40;;;8.23;;
9224;SDS011;4647;48.072;11.616;2023-04-06T02:26:50;10.80;;;7.47;;
9224;SDS011;4647;48.072;11.616;2023-04-06T02:29:18;10.57;;;8.50;;
9224;SDS011;4647;48.072;11.616;2023-04-06T02:31:49;10.57;;;8.83;;
9224;SDS011;4647;48.072;11.616;2023-04-06T02:34:18;12.17;;;8.97;;
9224;SDS011;4647;48.072;11.616;2023-04-06T02:36:46;8.90;;;8.10;;
9224;SDS011;4647;48.072;11.616;2023-04-06T02:39:15;10.50;;;8.60;;
9224;SDS011;4647;48.072;11.616;2023-04-06T02:41:45;9.80;;;8.30;;
9224;SDS011;4647;48.072;11.616;2023-04-06T02:44:13;8.63;;;7.73;;
9224;SDS011;4647;48.072;11.616;2023-04-06T02:46:42;10.33;;;9.27;;
9224;SDS011;4647;48.072;11.616;2023-04-06T02:49:13;9.67;;;8.60;;
9224;SDS011;4647;48.072;11.616;2023-04-06T02:51:42;11.97;;;9.13;;
9224;SDS011;4647;48.072;11.616;2023-04-06T02:54:10;9.77;;;8.83;;
9224;SDS011;4647;48.072;11.616;2023-04-06T02:56:39;11.97;;;9.10;;
9224;SDS011;4647;48.072;11.616;2023-04-06T02:59:07;11.00;;;8.63;;
9224;SDS011;4647;48.072;11.616;2023-04-06T03:01:36;10.70;;;8.93;;
9224;SDS011;4647;48.072;11.616;2023-04-06T03:04:05;10.47;;;8.63;;
9224;SDS011;4647;48.072;11.616;2023-04-06T03:06:36;11.47;;;9.23;;
9224;SDS011;4647;48.072;11.616;2023-04-06T03:09:05;10.63;;;8.80;;
9224;SDS011;4647;48.072;11.616;2023-04-06T03:11:34;10.07;;;9.03;;
9224;SDS011;4647;48.072;11.616;2023-04-06T03:14:03;11.57;;;8.60;;
9224;SDS011;4647;48.072;11.616;2023-04-06T03:16:31;11.93;;;8.83;;
9224;SDS011;4647;48.072;11.616;2023-04-06T03:19:00;11.13;;;9.03;;
9224;SDS011;4647;48.072;11.616;2023-04-06T03:21:29;10.27;;;9.13;;
9224;SDS011;4647;48.072;11.616;2023-04-06T03:24:00;10.43;;;9.30;;
9224;SDS011;4647;48.072;11.616;2023-04-06T03:26:28;11.13;;;8.70;;
9224;SDS011;4647;48.072;11.616;2023-04-06T03:28:57;10.77;;;9.30;;
9224;SDS011;4647;48.072;11.616;2023-04-06T03:31:25;11.07;;;9.53;;
9224;SDS011;4647;48.072;11.616;2023-04-06T03:33:54;9.90;;;9.00;;
9224;SDS011;4647;48.072;11.616;2023-04-06T03:36:22;12.83;;;8.70;;
9224;SDS011;4647;48.072;11.616;2023-04-06T03:38:51;14.43;;;9.83;;
9224;SDS011;4647;48.072;11.616;2023-04-06T03:41:22;12.00;;;9.20;;
9224;SDS011;4647;48.072;11.616;2023-04-06T03:43:51;10.23;;;8.60;;
9224;SDS011;4647;48.072;11.616;2023-04-06T03:46:20;10.23;;;9.23;;
9224;SDS011;4647;48.072;11.616;2023-04-06T03:48:48;10.47;;;8.20;;
9224;SDS011;4647;48.072;11.616;2023-04-06T03:51:17;10.83;;;9.30;;
9224;SDS011;4647;48.072;11.616;2023-04-06T03:53:45;10.97;;;9.00;;
9224;SDS011;4647;48.072;11.616;2023-04-06T03:56:14;10.40;;;9.30;;
9224;SDS011;4647;48.072;11.616;2023-04-06T03:58:45;11.63;;;9.20;;
9224;SDS011;4647;48.072;11.616;2023-04-06T04:01:15;11.57;;;10.00;;
9224;SDS011;4647;48.072;11.616;2023-04-06T04:03:44;10.10;;;9.10;;
9224;SDS011;4647;48.072;11.616;2023-04-06T04:06:13;11.83;;;9.80;;
9224;SDS011;4647;48.072;11.616;2023-04-06T04:08:41;10.40;;;9.40;;
9224;SDS011;4647;48.072;11.616;2023-04-06T04:11:10;11.50;;;10.03;;
9224;SDS011;4647;48.072;11.616;2023-04-06T04:13:38;13.83;;;10.10;;
9224;SDS011;4647;48.072;11.616;2023-04-06T04:16:09;13.60;;;9.10;;
9224;SDS011;4647;48.072;11.616;2023-04-06T04:18:38;12.67;;;10.20;;
9224;SDS011;4647;48.072;11.616;2023-04-06T04:21:08;12.27;;;10.53;;
9224;SDS011;4647;48.072;11.616;2023-04-06T04:23:37;13.90;;;10.00;;
9224;SDS011;4647;48.072;11.616;2023-04-06T04:26:05;10.30;;;9.13;;
9224;SDS011;4647;48.072;11.616;2023-04-06T04:28:34;13.33;;;9.53;;
9224;SDS011;4647;48.072;11.616;2023-04-06T04:31:03;10.90;;;9.27;;
9224;SDS011;4647;48.072;11.616;2023-04-06T04:33:34;9.83;;;8.83;;
9224;SDS011;4647;48.072;11.616;2023-04-06T04:36:03;13.23;;;10.17;;
9224;SDS011;4647;48.072;11.616;2023-04-06T04:38:32;10.10;;;8.87;;
9224;SDS011;4647;48.072;11.616;2023-04-06T04:41:00;14.50;;;9.97;;
9224;SDS011;4647;48.072;11.616;2023-04-06T04:43:29;15.20;;;10.50;;
9224;SDS011;4647;48.072;11.616;2023-04-06T04:45:57;15.43;;;9.67;;
9224;SDS011;4647;48.072;11.616;2023-04-06T04:48:26;18.50;;;10.00;;
9224;SDS011;4647;48.072;11.616;2023-04-06T04:50:58;11.67;;;9.67;;
9224;SDS011;4647;48.072;11.616;2023-04-06T04:53:26;12.07;;;9.50;;
9224;SDS011;4647;48.072;11.616;2023-04-06T04:55:55;14.40;;;9.63;;
9224;SDS011;4647;48.072;11.616;2023-04-06T04:58:23;16.43;;;10.00;;
9224;SDS011;4647;48.072;11.616;2023-04-06T05:00:52;11.33;;;8.80;;
9224;SDS011;4647;48.072;11.616;2023-04-06T05:03:20;15.73;;;9.47;;
9224;SDS011;4647;48.072;11.616;2023-04-06T05:05:51;12.83;;;9.47;;
9224;SDS011;4647;48.072;11.616;2023-04-06T05:08:22;18.90;;;11.20;;
9224;SDS011;4647;48.072;11.616;2023-04-06T05:10:51;29.00;;;14.17;;
9224;SDS011;4647;48.072;11.616;2023-04-06T05:13:19;18.47;;;10.03;;
9224;SDS011;4647;48.072;11.616;2023-04-06T05:15:48;20.23;;;10.10;;
9224;SDS011;4647;48.072;11.616;2023-04-06T05:18:17;15.50;;;9.33;;
9224;SDS011;4647;48.072;11.616;2023-04-06T05:20:46;11.07;;;8.37;;
9224;SDS011;4647;48.072;11.616;2023-04-06T05:23:16;13.03;;;9.07;;
9224;SDS011;4647;48.072;11.616;2023-04-06T05:25:47;17.53;;;9.53;;
9224;SDS011;4647;48.072;11.616;2023-04-06T05:28:16;20.40;;;8.97;;
9224;SDS011;4647;48.072;11.616;2023-04-06T05:30:45;9.57;;;8.20;;
9224;SDS011;4647;48.072;11.616;2023-04-06T05:33:14;12.50;;;7.80;;
9224;SDS011;4647;48.072;11.616;2023-04-06T05:35:42;10.23;;;7.40;;
9224;SDS011;4647;48.072;11.616;2023-04-06T05:38:11;14.03;;;7.57;;
9224;SDS011;4647;48.072;11.616;2023-04-06T05:40:40;11.80;;;7.63;;
9224;SDS011;4647;48.072;11.616;2023-04-06T05:43:11;11.17;;;7.63;;
9224;SDS011;4647;48.072;11.616;2023-04-06T05:45:40;11.23;;;7.73;;
9224;SDS011;4647;48.072;11.616;2023-04-06T05:48:08;14.97;;;7.60;;
9224;SDS011;4647;48.072;11.616;2023-04-06T05:50:37;10.20;;;7.73;;
9224;SDS011;4647;48.072;11.616;2023-04-06T05:53:05;11.33;;;7.43;;
9224;SDS011;4647;48.072;11.616;2023-04-06T05:55:34;10.60;;;6.63;;
9224;SDS011;4647;48.072;11.616;2023-04-06T05:58:02;10.40;;;6.73;;
9224;SDS011;4647;48.072;11.616;2023-04-06T06:00:33;9.87;;;6.60;;
9224;SDS011;4647;48.072;11.616;2023-04-06T06:03:02;10.50;;;6.90;;
9224;SDS011;4647;48.072;11.616;2023-04-06T06:05:33;12.27;;;6.90;;
9224;SDS011;4647;48.072;11.616;2023-04-06T06:08:02;14.23;;;7.70;;
9224;SDS011;4647;48.072;11.616;2023-04-06T06:10:30;21.53;;;11.30;;
9224;SDS011;4647;48.072;11.616;2023-04-06T06:12:59;14.60;;;8.43;;
9224;SDS011;4647;48.072;11.616;2023-04-06T06:15:27;9.27;;;6.77;;
9224;SDS011;4647;48.072;11.616;2023-04-06T06:17:58;9.23;;;6.87;;
9224;SDS011;4647;48.072;11.616;2023-04-06T06:20:27;12.47;;;7.27;;
9224;SDS011;4647;48.072;11.616;2023-04-06T06:22:55;10.97;;;7.10;;
9224;SDS011;4647;48.072;11.616;2023-04-06T06:25:24;8.33;;;6.60;;
9224;SDS011;4647;48.072;11.616;2023-04-06T06:27:52;9.73;;;6.60;;
9224;SDS011;4647;48.072;11.616;2023-04-06T06:30:21;11.50;;;7.20;;
9224;SDS011;4647;48.072;11.616;2023-04-06T06:32:49;11.03;;;7.27;;
9224;SDS011;4647;48.072;11.616;2023-04-06T06:35:21;13.50;;;8.33;;
9224;SDS011;4647;48.072;11.616;2023-04-06T06:37:49;16.50;;;8.63;;
9224;SDS011;4647;48.072;11.616;2023-04-06T06:40:18;19.53;;;9.13;;
9224;SDS011;4647;48.072;11.616;2023-04-06T06:42:48;25.60;;;9.07;;
9224;SDS011;4647;48.072;11.616;2023-04-06T06:45:18;14.53;;;7.93;;
9224;SDS011;4647;48.072;11.616;2023-04-06T06:47:46;16.07;;;7.37;;
9224;SDS011;4647;48.072;11.616;2023-04-06T06:50:15;12.03;;;6.47;;
9224;SDS011;4647;48.072;11.616;2023-04-06T06:52:46;9.37;;;6.53;;
9224;SDS011;4647;48.072;11.616;2023-04-06T06:55:15;8.63;;;6.30;;
9224;SDS011;4647;48.072;11.616;2023-04-06T06:57:44;12.23;;;6.90;;
9224;SDS011;4647;48.072;11.616;2023-04-06T07:00:13;13.53;;;7.43;;
9224;SDS011;4647;48.072;11.616;2023-04-06T07:02:42;10.47;;;7.27;;
9224;SDS011;4647;48.072;11.616;2023-04-06T07:05:11;15.33;;;7.00;;
9224;SDS011;4647;48.072;11.616;2023-04-06T07:07:39;9.17;;;7.63;;
9224;SDS011;4647;48.072;11.616;2023-04-06T07:10:10;9.20;;;6.63;;
9224;SDS011;4647;48.072;11.616;2023-04-06T07:12:39;11.50;;;7.10;;
9224;SDS011;4647;48.072;11.616;2023-04-06T07:15:08;11.27;;;7.37;;
9224;SDS011;4647;48.072;11.616;2023-04-06T07:17:37;12.10;;;7.67;;
9224;SDS011;4647;48.072;11.616;2023-04-06T07:20:06;14.60;;;7.33;;
9224;SDS011;4647;48.072;11.616;2023-04-06T07:22:35;11.23;;;7.87;;
9224;SDS011;4647;48.072;11.616;2023-04-06T07:25:06;8.70;;;7.37;;
9224;SDS011;4647;48.072;11.616;2023-04-06T07:27:38;12.30;;;7.47;;
9224;SDS011;4647;48.072;11.616;2023-04-06T07:30:07;9.43;;;7.80;;
9224;SDS011;4647;48.072;11.616;2023-04-06T07:32:36;8.37;;;7.50;;
9224;SDS011;4647;48.072;11.616;2023-04-06T07:35:05;11.30;;;8.00;;
9224;SDS011;4647;48.072;11.616;2023-04-06T07:37:36;10.37;;;7.57;;
9224;SDS011;4647;48.072;11.616;2023-04-06T07:40:05;9.13;;;6.77;;
9224;SDS011;4647;48.072;11.616;2023-04-06T07:42:35;8.90;;;7.60;;
9224;SDS011;4647;48.072;11.616;2023-04-06T07:45:06;10.53;;;6.80;;
9224;SDS011;4647;48.072;11.616;2023-04-06T07:47:35;9.53;;;7.30;;
9224;SDS011;4647;48.072;11.616;2023-04-06T07:50:04;12.10;;;7.83;;
9224;SDS011;4647;48.072;11.616;2023-04-06T07:52:33;10.23;;;7.40;;
9224;SDS011;4647;48.072;11.616;2023-04-06T07:55:02;9.40;;;7.40;;
9224;SDS011;4647;48.072;11.616;2023-04-06T07:57:31;8.63;;;7.20;;
9224;SDS011;4647;48.072;11.616;2023-04-06T08:00:03;9.43;;;7.57;;
9224;SDS011;4647;48.072;11.616;2023-04-06T08:02:34;8.30;;;7.20;;
9224;SDS011;4647;48.072;11.616;2023-04-06T08:05:03;9.90;;;7.40;;
9224;SDS011;4647;48.072;11.616;2023-04-06T08:07:32;11.63;;;7.30;;
9224;SDS011;4647;48.072;11.616;2023-04-06T08:10:00;15.93;;;6.80;;
9224;SDS011;4647;48.072;11.616;2023-04-06T08:12:29;8.03;;;6.80;;
9224;SDS011;4647;48.072;11.616;2023-04-06T08:14:58;7.57;;;6.13;;
9224;SDS011;4647;48.072;11.616;2023-04-06T08:17:30;7.83;;;7.03;;
9224;SDS011;4647;48.072;11.616;2023-04-06T08:20:00;7.23;;;6.53;;
9224;SDS011;4647;48.072;11.616;2023-04-06T08:22:28;9.97;;;7.30;;
9224;SDS011;4647;48.072;11.616;2023-04-06T08:24:57;12.47;;;7.40;;
9224;SDS011;4647;48.072;11.616;2023-04-06T08:27:25;20.10;;;8.90;;
9224;SDS011;4647;48.072;11.616;2023-04-06T08:29:54;12.90;;;7.83;;
9224;SDS011;4647;48.072;11.616;2023-04-06T08:32:23;11.53;;;7.40;;
9224;SDS011;4647;48.072;11.616;2023-04-06T08:34:55;12.70;;;7.50;;
9224;SDS011;4647;48.072;11.616;2023-04-06T08:37:24;10.27;;;7.67;;
9224;SDS011;4647;48.072;11.616;2023-04-06T08:39:53;9.13;;;7.40;;
9224;SDS011;4647;48.072;11.616;2023-04-06T08:42:21;9.83;;;7.93;;
9224;SDS011;4647;48.072;11.616;2023-04-06T08:44:53;9.53;;;7.80;;
9224;SDS011;4647;48.072;11.616;2023-04-06T08:47:23;10.30;;;6.97;;
9224;SDS011;4647;48.072;11.616;2023-04-06T08:49:52;10.13;;;7.67;;
9224;SDS011;4647;48.072;11.616;2023-04-06T08:52:24;7.90;;;7.10;;
9224;SDS011;4647;48.072;11.616;2023-04-06T08:54:54;10.73;;;7.63;;
9224;SDS011;4647;48.072;11.616;2023-04-06T08:57:23;9.47;;;7.13;;
9224;SDS011;4647;48.072;11.616;2023-04-06T08:59:52;9.10;;;7.40;;
9224;SDS011;4647;48.072;11.616;2023-04-06T09:02:23;8.70;;;7.70;;
9224;SDS011;4647;48.072;11.616;2023-04-06T09:04:52;10.53;;;7.07;;
9224;SDS011;4647;48.072;11.616;2023-04-06T09:07:24;9.23;;;7.67;;
9224;SDS011;4647;48.072;11.616;2023-04-06T09:09:54;9.33;;;7.43;;
9224;SDS011;4647;48.072;11.616;2023-04-06T09:12:23;10.90;;;7.90;;
9224;SDS011;4647;48.072;11.616;2023-04-06T09:14:53;13.77;;;8.47;;
9224;SDS011;4647;48.072;11.616;2023-04-06T09:17:22;11.90;;;8.10;;
9224;SDS011;4647;48.072;11.616;2023-04-06T09:19:51;9.77;;;7.33;;
9224;SDS011;4647;48.072;11.616;2023-04-06T09:22:19;9.83;;;8.43;;
9224;SDS011;4647;48.072;11.616;2023-04-06T09:24:52;9.30;;;8.40;;
9224;SDS011;4647;48.072;11.616;2023-04-06T09:27:29;14.17;;;8.53;;
9224;SDS011;4647;48.072;11.616;2023-04-06T09:30:07;15.77;;;8.73;;
9224;SDS011;4647;48.072;11.616;2023-04-06T09:32:45;9.27;;;8.03;;
9224;SDS011;4647;48.072;11.616;2023-04-06T09:35:15;10.07;;;9.07;;
9224;SDS011;4647;48.072;11.616;2023-04-06T09:37:45;10.70;;;8.57;;
9224;SDS011;4647;48.072;11.616;2023-04-06T09:40:17;12.03;;;8.30;;
9224;SDS011;4647;48.072;11.616;2023-04-06T09:42:47;11.57;;;9.00;;
9224;SDS011;4647;48.072;11.616;2023-04-06T09:45:17;13.90;;;8.07;;
9224;SDS011;4647;48.072;11.616;2023-04-06T09:47:46;13.40;;;9.03;;
9224;SDS011;4647;48.072;11.616;2023-04-06T09:50:15;8.97;;;8.07;;
9224;SDS011;4647;48.072;11.616;2023-04-06T09:52:46;9.03;;;8.13;;
9224;SDS011;4647;48.072;11.616;2023-04-06T09:55:20;10.43;;;8.37;;
9224;SDS011;4647;48.072;11.616;2023-04-06T09:57:53;8.43;;;7.47;;
9224;SDS011;4647;48.072;11.616;2023-04-06T10:00:26;9.50;;;8.07;;
9224;SDS011;4647;48.072;11.616;2023-04-06T10:02:58;10.80;;;8.90;;
9224;SDS011;4647;48.072;11.616;2023-04-06T10:05:33;11.70;;;7.73;;
9224;SDS011;4647;48.072;11.616;2023-04-06T10:08:06;10.00;;;9.00;;
9224;SDS011;4647;48.072;11.616;2023-04-06T10:10:39;10.63;;;8.60;;
9224;SDS011;4647;48.072;11.616;2023-04-06T10:13:08;10.53;;;8.40;;
9224;SDS011;4647;48.072;11.616;2023-04-06T10:15:39;10.30;;;8.43;;
9224;SDS011;4647;48.072;11.616;2023-04-06T10:18:07;8.53;;;7.63;;
9224;SDS011;4647;48.072;11.616;2023-04-06T10:20:38;9.77;;;8.60;;
9224;SDS011;4647;48.072;11.616;2023-04-06T10:23:12;14.63;;;8.60;;
9224;SDS011;4647;48.072;11.616;2023-04-06T10:25:54;11.30;;;8.40;;
9224;SDS011;4647;48.072;11.616;2023-04-06T10:28:25;8.73;;;7.83;;
9224;SDS011;4647;48.072;11.616;2023-04-06T10:30:57;9.00;;;7.87;;
9224;SDS011;4647;48.072;11.616;2023-04-06T10:33:26;8.70;;;7.80;;
9224;SDS011;4647;48.072;11.616;2023-04-06T10:35:55;8.80;;;7.90;;
9224;SDS011;4647;48.072;11.616;2023-04-06T10:38:33;10.03;;;8.10;;
9224;SDS011;4647;48.072;11.616;2023-04-06T10:41:08;10.77;;;8.03;;
9224;SDS011;4647;48.072;11.616;2023-04-06T10:43:38;10.00;;;8.17;;
9224;SDS011;4647;48.072;11.616;2023-04-06T10:46:07;8.93;;;7.57;;
9224;SDS011;4647;48.072;11.616;2023-04-06T10:48:37;14.30;;;8.70;;
9224;SDS011;4647;48.072;11.616;2023-04-06T10:51:08;9.80;;;8.40;;
9224;SDS011;4647;48.072;11.616;2023-04-06T10:53:39;13.63;;;7.70;;
9224;SDS011;4647;48.072;11.616;2023-04-06T10:56:13;9.57;;;8.03;;
9224;SDS011;4647;48.072;11.616;2023-04-06T10:58:45;9.67;;;7.83;;
9224;SDS011;4647;48.072;11.616;2023-04-06T11:01:14;8.70;;;7.83;;
9224;SDS011;4647;48.072;11.616;2023-04-06T11:03:44;11.33;;;8.63;;
9224;SDS011;4647;48.072;11.616;2023-04-06T11:06:19;9.00;;;8.10;;
9224;SDS011;4647;48.072;11.616;2023-04-06T11:08:48;7.77;;;7.07;;
9224;SDS011;4647;48.072;11.616;2023-04-06T11:11:21;8.30;;;7.50;;
9224;SDS011;4647;48.072;11.616;2023-04-06T11:13:51;8.17;;;7.37;;
9224;SDS011;4647;48.072;11.616;2023-04-06T11:16:22;11.87;;;7.70;;
9224;SDS011;4647;48.072;11.616;2023-04-06T11:18:52;11.23;;;7.80;;
9224;SDS011;4647;48.072;11.616;2023-04-06T11:21:31;8.53;;;7.50;;
9224;SDS011;4647;48.072;11.616;2023-04-06T11:24:05;9.27;;;7.60;;
9224;SDS011;4647;48.072;11.616;2023-04-06T11:26:41;19.10;;;8.73;;
9224;SDS011;4647;48.072;11.616;2023-04-06T11:29:14;9.83;;;8.50;;
9224;SDS011;4647;48.072;11.616;2023-04-06T11:31:45;9.53;;;8.60;;
9224;SDS011;4647;48.072;11.616;2023-04-06T11:34:16;8.97;;;7.63;;
9224;SDS011;4647;48.072;11.616;2023-04-06T11:36:46;9.97;;;8.37;;
9224;SDS011;4647;48.072;11.616;2023-04-06T11:39:18;9.57;;;8.57;;
9224;SDS011;4647;48.072;11.616;2023-04-06T11:41:51;9.40;;;8.50;;
9224;SDS011;4647;48.072;11.616;2023-04-06T11:44:28;10.20;;;8.57;;
9224;SDS011;4647;48.072;11.616;2023-04-06T11:47:00;11.50;;;8.03;;
9224;SDS011;4647;48.072;11.616;2023-04-06T11:49:29;8.30;;;7.50;;
9224;SDS011;4647;48.072;11.616;2023-04-06T11:51:58;11.53;;;8.30;;
9224;SDS011;4647;48.072;11.616;2023-04-06T11:54:31;10.17;;;8.30;;
9224;SDS011;4647;48.072;11.616;2023-04-06T11:57:04;9.40;;;8.33;;
9224;SDS011;4647;48.072;11.616;2023-04-06T11:59:33;9.23;;;8.27;;
9224;SDS011;4647;48.072;11.616;2023-04-06T12:02:02;8.60;;;7.63;;
9224;SDS011;4647;48.072;11.616;2023-04-06T12:04:31;7.83;;;7.13;;
9224;SDS011;4647;48.072;11.616;2023-04-06T12:07:00;9.60;;;8.60;;
9224;SDS011;4647;48.072;11.616;2023-04-06T12:09:29;8.53;;;7.73;;
9224;SDS011;4647;48.072;11.616;2023-04-06T12:11:59;9.10;;;7.53;;
9224;SDS011;4647;48.072;11.616;2023-04-06T12:14:31;8.80;;;7.90;;
9224;SDS011;4647;48.072;11.616;2023-04-06T12:16:59;7.70;;;6.90;;
9224;SDS011;4647;48.072;11.616;2023-04-06T12:19:28;9.83;;;7.40;;
9224;SDS011;4647;48.072;11.616;2023-04-06T12:21:56;9.57;;;7.70;;
9224;SDS011;4647;48.072;11.616;2023-04-06T12:24:25;8.33;;;7.30;;
9224;SDS011;4647;48.072;11.616;2023-04-06T12:26:55;9.30;;;6.93;;
9224;SDS011;4647;48.072;11.616;2023-04-06T12:29:24;9.80;;;7.17;;
9224;SDS011;4647;48.072;11.616;2023-04-06T12:31:55;9.17;;;7.40;;
9224;SDS011;4647;48.072;11.616;2023-04-06T12:34:24;8.77;;;7.03;;
9224;SDS011;4647;48.072;11.616;2023-04-06T12:36:53;10.03;;;7.07;;
9224;SDS011;4647;48.072;11.616;2023-04-06T12:39:22;10.90;;;7.20;;
9224;SDS011;4647;48.072;11.616;2023-04-06T12:41:52;6.73;;;6.07;;
9224;SDS011;4647;48.072;11.616;2023-04-06T12:44:21;8.63;;;6.07;;
9224;SDS011;4647;48.072;11.616;2023-04-06T12:46:49;7.20;;;6.40;;
9224;SDS011;4647;48.072;11.616;2023-04-06T12:49:21;8.10;;;6.60;;
9224;SDS011;4647;48.072;11.616;2023-04-06T12:51:49;7.20;;;6.50;;
9224;SDS011;4647;48.072;11.616;2023-04-06T12:54:18;7.03;;;6.43;;
9224;SDS011;4647;48.072;11.616;2023-04-06T12:56:46;6.93;;;6.23;;
9224;SDS011;4647;48.072;11.616;2023-04-06T12:59:15;6.73;;;6.03;;
9224;SDS011;4647;48.072;11.616;2023-04-06T13:01:46;7.43;;;6.53;;
9224;SDS011;4647;48.072;11.616;2023-04-06T13:04:14;7.53;;;6.63;;
9224;SDS011;4647;48.072;11.616;2023-04-06T13:06:45;7.10;;;6.50;;
9224;SDS011;4647;48.072;11.616;2023-04-06T13:09:14;8.10;;;6.57;;
9224;SDS011;4647;48.072;11.616;2023-04-06T13:11:42;7.57;;;6.73;;
9224;SDS011;4647;48.072;11.616;2023-04-06T13:14:11;7.40;;;6.70;;
9224;SDS011;4647;48.072;11.616;2023-04-06T13:16:40;6.90;;;6.20;;
9224;SDS011;4647;48.072;11.616;2023-04-06T13:19:09;7.27;;;6.57;;
9224;SDS011;4647;48.072;11.616;2023-04-06T13:21:38;7.10;;;6.40;;
9224;SDS011;4647;48.072;11.616;2023-04-06T13:24:09;7.60;;;6.60;;
9224;SDS011;4647;48.072;11.616;2023-04-06T13:26:38;9.00;;;6.40;;
9224;SDS011;4647;48.072;11.616;2023-04-06T13:29:07;13.17;;;7.13;;
9224;SDS011;4647;48.072;11.616;2023-04-06T13:31:36;9.47;;;6.77;;
9224;SDS011;4647;48.072;11.616;2023-04-06T13:34:04;7.03;;;6.37;;
9224;SDS011;4647;48.072;11.616;2023-04-06T13:36:33;10.10;;;6.80;;
9224;SDS011;4647;48.072;11.616;2023-04-06T13:39:01;7.87;;;5.70;;
9224;SDS011;4647;48.072;11.616;2023-04-06T13:41:32;6.90;;;6.20;;
9224;SDS011;4647;48.072;11.616;2023-04-06T13:44:01;9.23;;;6.07;;
9224;SDS011;4647;48.072;11.616;2023-04-06T13:46:29;7.27;;;6.57;;
9224;SDS011;4647;48.072;11.616;2023-04-06T13:48:58;7.17;;;6.43;;
9224;SDS011;4647;48.072;11.616;2023-04-06T13:51:26;6.37;;;5.77;;
9224;SDS011;4647;48.072;11.616;2023-04-06T13:53:55;7.00;;;6.33;;
9224;SDS011;4647;48.072;11.616;2023-04-06T13:56:24;7.10;;;6.40;;
9224;SDS011;4647;48.072;11.616;2023-04-06T13:58:56;6.63;;;5.63;;
9224;SDS011;4647;48.072;11.616;2023-04-06T14:01:24;6.50;;;5.70;;
9224;SDS011;4647;48.072;11.616;2023-04-06T14:03:53;7.20;;;6.20;;
9224;SDS011;4647;48.072;11.616;2023-04-06T14:06:21;7.20;;;6.47;;
9224;SDS011;4647;48.072;11.616;2023-04-06T14:08:49;7.63;;;6.23;;
9224;SDS011;4647;48.072;11.616;2023-04-06T14:11:18;6.73;;;6.03;;
9224;SDS011;4647;48.072;11.616;2023-04-06T14:13:47;6.30;;;5.70;;
9224;SDS011;4647;48.072;11.616;2023-04-06T14:16:18;6.70;;;6.10;;
9224;SDS011;4647;48.072;11.616;2023-04-06T14:18:48;6.07;;;5.50;;
9224;SDS011;4647;48.072;11.616;2023-04-06T14:21:17;6.97;;;5.97;;
9224;SDS011;4647;48.072;11.616;2023-04-06T14:23:46;6.17;;;5.43;;
9224;SDS011;4647;48.072;11.616;2023-04-06T14:26:14;6.13;;;5.53;;
9224;SDS011;4647;48.072;11.616;2023-04-06T14:28:43;6.53;;;5.27;;
9224;SDS011;4647;48.072;11.616;2023-04-06T14:31:13;6.00;;;5.40;;
9224;SDS011;4647;48.072;11.616;2023-04-06T14:33:45;6.40;;;5.80;;
9224;SDS011;4647;48.072;11.616;2023-04-06T14:36:14;5.97;;;4.70;;
9224;SDS011;4647;48.072;11.616;2023-04-06T14:38:42;10.50;;;4.80;;
9224;SDS011;4647;48.072;11.616;2023-04-06T14:41:14;6.53;;;5.47;;
9224;SDS011;4647;48.072;11.616;2023-04-06T14:43:45;6.10;;;5.40;;
9224;SDS011;4647;48.072;11.616;2023-04-06T14:46:13;5.33;;;4.83;;
9224;SDS011;4647;48.072;11.616;2023-04-06T14:48:45;5.33;;;4.83;;
9224;SDS011;4647;48.072;11.616;2023-04-06T14:51:13;6.20;;;5.07;;
9224;SDS011;4647;48.072;11.616;2023-04-06T14:53:42;5.07;;;4.43;;
9224;SDS011;4647;48.072;11.616;2023-04-06T14:56:11;6.10;;;4.97;;
9224;SDS011;4647;48.072;11.616;2023-04-06T14:58:39;5.97;;;4.70;;
9224;SDS011;4647;48.072;11.616;2023-04-06T15:01:08;5.40;;;4.90;;
9224;SDS011;4647;48.072;11.616;2023-04-06T15:03:36;6.50;;;5.03;;
9224;SDS011;4647;48.072;11.616;2023-04-06T15:06:11;7.67;;;5.60;;